Time;durP1;ratioP1;P1;durP2;ratioP2;P2;SDS_P1;SDS_P2;PMS_P1;PMS_P2;Temp;Humidity;BMP_temperature;BMP_pressure;BME280_temperature;BME280_humidity;BME280_pressure;Samples;Min_cycle;Max_cycle;Signal;HPM_P1;HPM_P2
2021/01/20 00:05:32;;;;;;;54.88;23.20;;;;;;;0.58;86.37;98422.27;4304042;81;21170;-89
2021/01/20 00:11:34;;;;;;;46.48;21.50;;;;;;;0.54;86.54;98426.74;4305060;81;21304;-90
2021/01/20 00:17:35;;;;;;;36.10;16.02;;;;;;;0.57;86.71;98425.30;4316587;80;21313;-89
2021/01/20 00:23:37;;;;;;;34.98;16.25;;;;;;;0.60;86.81;98424.09;4345799;80;21576;-89
2021/01/20 00:29:38;;;;;;;37.28;16.48;;;;;;;0.61;86.89;98439.13;4341747;80;21309;-88
2021/01/20 00:35:40;;;;;;;45.43;19.35;;;;;;;0.58;86.95;98432.28;4346974;80;21166;-89
2021/01/20 00:41:41;;;;;;;56.53;24.40;;;;;;;0.58;86.92;98429.59;4339938;80;21642;-90
2021/01/20 00:47:43;;;;;;;34.53;17.00;;;;;;;0.62;87.08;98434.00;4343291;80;21588;-90
2021/01/20 00:53:44;;;;;;;37.03;18.00;;;;;;;0.64;87.00;98429.64;4349868;81;21118;-90
2021/01/20 00:59:46;;;;;;;26.48;14.95;;;;;;;0.55;87.15;98424.27;4344705;80;21146;-90
2021/01/20 01:05:48;;;;;;;26.75;13.80;;;;;;;0.60;87.39;98428.14;4337460;80;21626;-90
2021/01/20 01:11:49;;;;;;;23.67;13.60;;;;;;;0.57;87.43;98426.09;4344543;80;21193;-88
2021/01/20 01:17:51;;;;;;;23.47;14.07;;;;;;;0.59;87.56;98436.00;4341247;80;21342;-89
2021/01/20 01:23:53;;;;;;;27.25;14.30;;;;;;;0.51;87.42;98438.16;4338195;80;21826;-90
2021/01/20 01:29:55;;;;;;;29.63;14.35;;;;;;;0.52;87.70;98435.69;4341647;80;21727;-91
2021/01/20 01:35:59;;;;;;;30.00;14.58;;;;;;;0.56;87.96;98423.17;4346353;80;21660;-89
2021/01/20 01:42:03;;;;;;;31.40;14.57;;;;;;;0.56;87.96;98423.17;4335065;80;21189;-89
2021/01/20 01:48:05;;;;;;;23.50;13.03;;;;;;;0.49;87.72;98419.38;4336158;81;21647;-89
2021/01/20 01:54:09;;;;;;;28.37;13.67;;;;;;;0.44;87.83;98421.70;4334459;81;21667;-90
2021/01/20 02:00:14;;;;;;;26.73;14.35;;;;;;;0.45;88.06;98422.50;4342830;81;21643;-91
2021/01/20 02:06:16;;;;;;;24.65;13.90;;;;;;;0.44;88.01;98427.66;4340146;80;21243;-89
2021/01/20 02:12:43;;;;;;;26.45;13.55;;;;;;;0.38;87.78;98428.92;4314486;80;21308;-90
2021/01/20 02:18:52;;;;;;;25.80;13.20;;;;;;;0.29;88.07;98429.52;4263549;80;21167;-90
2021/01/20 02:25:07;;;;;;;22.73;11.48;;;;;;;0.30;88.32;98428.42;4353546;80;21190;-90
2021/01/20 02:31:29;;;;;;;17.65;11.08;;;;;;;0.33;88.37;98423.16;4452406;78;22935;-90
2021/01/20 02:37:33;;;;;;;15.32;9.33;;;;;;;0.28;88.22;98429.29;4379834;80;21600;-90
2021/01/20 02:44:01;;;;;;;16.17;9.55;;;;;;;0.25;88.49;98428.59;4388059;80;21159;-90
2021/01/20 02:50:21;;;;;;;16.35;9.83;;;;;;;0.28;88.44;98432.78;4385192;80;21734;-91
2021/01/20 02:56:25;;;;;;;18.48;11.55;;;;;;;0.35;88.53;98429.56;4360720;80;21150;-91
2021/01/20 03:02:39;;;;;;;29.65;14.30;;;;;;;0.36;88.60;98433.28;4379964;80;21158;-91
2021/01/20 03:08:41;;;;;;;18.73;10.40;;;;;;;0.43;88.53;98430.91;4389106;80;21170;-91
2021/01/20 03:14:44;;;;;;;18.52;9.98;;;;;;;0.51;88.67;98424.70;4384857;80;21638;-90
2021/01/20 03:20:46;;;;;;;30.00;12.82;;;;;;;0.57;88.79;98440.91;4383967;80;21185;-91
2021/01/20 03:26:47;;;;;;;16.25;8.58;;;;;;;0.55;88.68;98430.23;4389949;80;21208;-91
2021/01/20 03:32:52;;;;;;;14.30;7.92;;;;;;;0.57;88.82;98432.03;4381589;80;21282;-90
2021/01/20 03:38:54;;;;;;;11.73;7.58;;;;;;;0.56;89.00;98428.56;4371657;80;21201;-91
2021/01/20 03:44:55;;;;;;;10.23;6.47;;;;;;;0.58;89.06;98422.86;4383955;80;21181;-91
2021/01/20 03:50:57;;;;;;;9.73;6.28;;;;;;;0.65;89.15;98432.55;4373575;80;21492;-91
2021/01/20 03:56:58;;;;;;;10.65;6.50;;;;;;;0.63;89.19;98428.03;4381227;80;21325;-90
2021/01/20 04:02:59;;;;;;;10.78;6.70;;;;;;;0.63;89.20;98433.42;4226712;83;21169;-91
2021/01/20 04:09:07;;;;;;;15.08;7.28;;;;;;;0.68;89.50;98439.98;4272273;81;21196;-90
2021/01/20 04:15:10;;;;;;;13.05;7.53;;;;;;;0.67;89.43;98439.22;4269318;81;21179;-90
2021/01/20 04:21:12;;;;;;;14.07;7.30;;;;;;;0.68;89.49;98450.21;4203749;84;21324;-90
2021/01/20 04:27:13;;;;;;;14.03;7.80;;;;;;;0.66;89.53;98443.00;4225211;83;21608;-90
2021/01/20 04:33:15;;;;;;;11.27;7.30;;;;;;;0.67;89.51;98442.45;4265974;81;21207;-91
2021/01/20 04:39:16;;;;;;;15.25;8.18;;;;;;;0.68;89.77;98445.38;4251222;83;21166;-91
2021/01/20 04:45:18;;;;;;;12.28;7.58;;;;;;;0.70;89.87;98449.89;4252553;83;21209;-91
2021/01/20 04:51:21;;;;;;;13.05;6.70;;;;;;;0.73;89.86;98449.23;4242050;83;21279;-91
2021/01/20 04:57:28;;;;;;;13.40;7.87;;;;;;;0.75;89.88;98442.40;4247528;83;21657;-92
2021/01/20 05:03:30;;;;;;;18.62;8.08;;;;;;;0.79;89.87;98437.96;4249969;83;21202;-91
2021/01/20 05:09:31;;;;;;;22.48;8.25;;;;;;;0.95;89.79;98448.43;4245828;83;21177;-89
2021/01/20 05:15:35;;;;;;;21.62;8.35;;;;;;;0.95;89.79;98448.43;4249131;83;21183;-90
2021/01/20 05:21:37;;;;;;;14.55;5.92;;;;;;;0.99;90.13;98452.59;4246225;83;21195;-92
2021/01/20 05:27:40;;;;;;;12.05;6.20;;;;;;;0.99;90.00;98448.00;4245765;83;21224;-91
2021/01/20 05:33:42;;;;;;;13.43;6.75;;;;;;;1.02;90.01;98448.69;4236340;83;21373;-89
2021/01/20 05:39:45;;;;;;;13.05;5.60;;;;;;;1.01;90.02;98459.25;4249408;83;21477;-92
2021/01/20 05:45:46;;;;;;;11.75;5.87;;;;;;;1.00;90.08;98452.84;4251422;81;21185;-91
2021/01/20 05:51:48;;;;;;;18.67;7.08;;;;;;;0.97;90.19;98461.58;4245511;83;21947;-91
2021/01/20 05:57:52;;;;;;;20.88;7.75;;;;;;;0.99;90.29;98451.24;4246121;83;21162;-91
2021/01/20 06:03:54;;;;;;;19.42;7.58;;;;;;;1.02;90.31;98451.39;4252429;83;21316;-91
2021/01/20 06:09:57;;;;;;;17.27;8.83;;;;;;;0.99;90.29;98458.78;4258934;83;21181;-90
2021/01/20 06:16:02;;;;;;;19.82;9.45;;;;;;;1.07;90.34;98464.69;4253539;83;21627;-93
2021/01/20 06:22:04;;;;;;;11.00;4.70;;;;;;;1.07;90.34;98464.69;4240576;83;21185;-91
2021/01/20 06:28:12;;;;;;;15.45;7.60;;;;;;;1.08;90.52;98474.92;4251384;83;21217;-90
2021/01/20 06:34:14;;;;;;;14.25;6.50;;;;;;;1.12;90.79;98478.53;4254467;83;21632;-91
2021/01/20 06:40:24;;;;;;;22.05;8.83;;;;;;;1.19;90.74;98489.03;4249330;83;21170;-90
2021/01/20 06:46:27;;;;;;;59.10;21.93;;;;;;;1.30;90.60;98490.81;4258883;83;21292;-89
2021/01/20 06:52:29;;;;;;;51.98;17.62;;;;;;;1.32;90.56;98504.19;4268826;83;21181;-89
2021/01/20 06:58:31;;;;;;;61.00;20.08;;;;;;;1.34;90.80;98501.17;4254098;83;21189;-92
2021/01/20 07:04:53;;;;;;;52.08;19.67;;;;;;;1.39;90.62;98506.38;4244421;83;21187;-92
2021/01/20 07:11:02;;;;;;;44.60;19.27;;;;;;;1.52;90.93;98500.73;4252358;83;21154;-90
2021/01/20 07:17:06;;;;;;;61.45;24.25;;;;;;;1.57;90.53;98508.64;4256942;83;21217;-92
2021/01/20 07:23:09;;;;;;;78.15;28.73;;;;;;;1.61;90.52;98511.48;4255644;83;21182;-91
2021/01/20 07:29:24;;;;;;;118.75;44.25;;;;;;;1.61;90.52;98511.48;4241920;83;21623;-88
2021/01/20 07:35:29;;;;;;;89.75;38.30;;;;;;;1.71;90.79;98525.14;4198286;83;21453;-91
2021/01/20 07:41:30;;;;;;;101.33;32.98;;;;;;;1.81;90.84;98530.94;4222330;83;21739;-90
2021/01/20 07:47:46;;;;;;;60.58;23.18;;;;;;;1.81;90.69;98543.63;4213161;83;21356;-89
2021/01/20 07:54:04;;;;;;;76.10;28.87;;;;;;;1.64;90.63;98532.41;4222552;83;21174;-89
2021/01/20 08:00:08;;;;;;;92.25;34.73;;;;;;;1.74;90.73;98560.34;4217711;83;21331;-89
2021/01/20 08:06:15;;;;;;;82.80;30.25;;;;;;;1.82;91.10;98562.77;4194587;83;21199;-88
2021/01/20 08:12:27;;;;;;;89.00;35.35;;;;;;;1.94;91.06;98567.69;4215362;83;21166;-89
2021/01/20 08:18:28;;;;;;;69.05;30.72;;;;;;;1.92;90.90;98583.41;4236069;82;21191;-89
2021/01/20 08:24:30;;;;;;;61.55;27.82;;;;;;;1.91;90.90;98571.02;4242004;82;21214;-87
2021/01/20 08:30:34;;;;;;;57.30;28.90;;;;;;;2.11;91.28;98578.35;4274355;81;21317;-88
2021/01/20 08:36:36;;;;;;;57.48;23.50;;;;;;;2.25;91.13;98573.47;4307447;81;21161;-88
2021/01/20 08:42:40;;;;;;;37.73;18.90;;;;;;;2.47;90.94;98560.17;4304203;81;21321;-88
2021/01/20 08:48:41;;;;;;;28.05;15.18;;;;;;;2.87;90.71;98567.94;4307568;81;21582;-88
2021/01/20 08:54:50;;;;;;;29.30;16.35;;;;;;;3.07;90.42;98563.02;4304809;81;21323;-88
2021/01/20 09:01:00;;;;;;;29.82;16.32;;;;;;;3.33;90.41;98560.80;4300315;81;21219;-89
2021/01/20 09:07:02;;;;;;;30.75;15.35;;;;;;;3.72;90.49;98572.84;4303459;81;21197;-89
2021/01/20 09:13:07;;;;;;;23.62;12.30;;;;;;;4.26;89.70;98576.83;4306922;81;21191;-89
2021/01/20 09:19:11;;;;;;;21.37;11.30;;;;;;;4.14;89.34;98575.48;4258561;82;21161;-88
2021/01/20 09:25:13;;;;;;;17.87;8.70;;;;;;;4.01;88.94;98582.08;4291193;82;21216;-89
2021/01/20 09:31:15;;;;;;;16.77;8.28;;;;;;;3.86;88.91;98590.33;4281756;81;21202;-88
2021/01/20 09:37:16;;;;;;;15.98;8.00;;;;;;;3.72;88.81;98601.27;4232174;82;21178;-88
2021/01/20 09:43:20;;;;;;;17.65;9.73;;;;;;;3.62;88.76;98594.98;4251482;83;21177;-87
2021/01/20 09:49:21;;;;;;;28.02;14.13;;;;;;;3.56;88.82;98596.30;4283395;82;21655;-87
2021/01/20 09:55:22;;;;;;;36.23;19.32;;;;;;;3.62;88.88;98586.27;4279897;82;21623;-85
2021/01/20 10:01:24;;;;;;;39.88;22.48;;;;;;;3.74;88.83;98580.08;4272260;82;21190;-91
2021/01/20 10:07:26;;;;;;;25.97;12.18;;;;;;;3.95;88.91;98579.35;4276037;82;21158;-89
2021/01/20 10:13:27;;;;;;;15.23;8.30;;;;;;;4.07;88.03;98576.64;4278329;82;21178;-88
2021/01/20 10:19:29;;;;;;;16.85;9.08;;;;;;;4.11;87.89;98558.56;4272666;82;21162;-89
2021/01/20 10:25:33;;;;;;;16.67;8.08;;;;;;;4.15;87.63;98549.41;4276826;82;21320;-89
2021/01/20 10:31:38;;;;;;;14.43;7.53;;;;;;;4.21;86.96;98548.61;4287551;82;21175;-89
2021/01/20 10:37:40;;;;;;;11.18;6.10;;;;;;;4.32;86.52;98535.57;4326529;81;21645;-89
2021/01/20 10:43:42;;;;;;;14.70;6.15;;;;;;;4.35;85.51;98530.81;4247749;83;21183;-88
2021/01/20 10:49:43;;;;;;;10.82;5.47;;;;;;;4.45;85.33;98523.55;4309039;81;21163;-90
2021/01/20 10:55:50;;;;;;;14.07;5.80;;;;;;;4.54;85.63;98514.70;4280975;81;21184;-89
2021/01/20 11:01:51;;;;;;;13.03;5.75;;;;;;;4.51;84.69;98514.03;4250251;83;21214;-89
2021/01/20 11:07:52;;;;;;;10.88;5.75;;;;;;;4.46;85.07;98517.58;4302776;81;21228;-89
2021/01/20 11:13:54;;;;;;;15.15;5.85;;;;;;;4.53;83.98;98510.42;4326231;81;21296;-90
2021/01/20 11:19:56;;;;;;;9.68;4.30;;;;;;;4.64;84.50;98503.36;4309713;81;21150;-88
2021/01/20 11:25:57;;;;;;;9.85;4.00;;;;;;;4.72;84.07;98494.84;4288565;82;21222;-86
2021/01/20 11:31:59;;;;;;;9.40;3.85;;;;;;;4.78;84.12;98483.95;4264917;82;21165;-88
2021/01/20 11:38:00;;;;;;;9.50;4.90;;;;;;;4.86;84.14;98485.70;4243306;83;22219;-89
2021/01/20 11:44:02;;;;;;;11.43;4.40;;;;;;;4.90;83.73;98476.31;4237622;83;21246;-88
2021/01/20 11:50:06;;;;;;;7.75;4.17;;;;;;;5.04;83.92;98474.74;4233722;83;21671;-89
2021/01/20 11:56:07;;;;;;;29.05;10.60;;;;;;;5.16;82.52;98467.85;4229983;83;21154;-90
2021/01/20 12:02:10;;;;;;;24.43;9.85;;;;;;;5.19;82.76;98463.08;4237384;83;21218;-89
2021/01/20 12:08:11;;;;;;;22.42;8.85;;;;;;;5.21;82.56;98464.88;4235014;83;21237;-91
2021/01/20 12:14:14;;;;;;;11.68;4.50;;;;;;;5.33;82.31;98449.83;4243241;83;21193;-90
2021/01/20 12:20:16;;;;;;;9.05;4.10;;;;;;;5.52;81.15;98452.59;4241699;83;21173;-90
2021/01/20 12:26:20;;;;;;;8.05;3.50;;;;;;;5.64;81.58;98438.89;4237922;83;21212;-90
2021/01/20 12:32:22;;;;;;;20.27;7.20;;;;;;;5.80;81.04;98433.39;4238703;83;21170;-91
2021/01/20 12:38:23;;;;;;;12.82;5.17;;;;;;;5.83;79.67;98421.84;4239031;83;21156;-89
2021/01/20 12:44:25;;;;;;;10.25;4.65;;;;;;;5.83;80.27;98424.00;4254386;83;21185;-90
2021/01/20 12:50:27;;;;;;;8.98;4.15;;;;;;;5.75;79.62;98420.89;4240221;83;21645;-89
2021/01/20 12:56:29;;;;;;;11.53;4.12;;;;;;;5.78;79.63;98419.41;4242273;83;21210;-88
2021/01/20 13:02:31;;;;;;;9.00;4.40;;;;;;;5.87;79.39;98411.86;4224963;83;21187;-86
2021/01/20 13:08:32;;;;;;;12.55;6.20;;;;;;;5.82;79.10;98412.94;4241657;83;21178;-87
2021/01/20 13:14:34;;;;;;;7.87;3.58;;;;;;;5.76;78.05;98408.87;4253564;83;21201;-87
2021/01/20 13:20:36;;;;;;;7.47;3.27;;;;;;;5.66;76.83;98405.39;4241771;83;21412;-89
2021/01/20 13:26:37;;;;;;;6.60;3.58;;;;;;;5.71;76.77;98406.47;4248822;83;21179;-90
2021/01/20 13:32:39;;;;;;;7.85;3.25;;;;;;;5.55;77.07;98407.09;4255594;83;21214;-89
2021/01/20 13:38:40;;;;;;;5.92;3.22;;;;;;;5.44;78.20;98410.70;4246950;83;21319;-89
2021/01/20 13:44:43;;;;;;;8.10;3.65;;;;;;;5.27;78.43;98409.75;4248065;83;21344;-89
2021/01/20 13:50:45;;;;;;;5.45;3.40;;;;;;;5.26;77.99;98410.90;4244345;83;21210;-86
2021/01/20 13:56:46;;;;;;;9.45;3.52;;;;;;;5.12;77.11;98410.58;4243220;83;21162;-86
2021/01/20 14:02:48;;;;;;;9.18;3.90;;;;;;;5.05;77.97;98409.05;4250724;83;21189;-88
2021/01/20 14:08:49;;;;;;;8.75;3.98;;;;;;;5.02;78.11;98409.75;4244612;83;21175;-87
2021/01/20 14:14:51;;;;;;;9.48;4.45;;;;;;;4.97;78.31;98403.23;4236707;83;22336;-88
2021/01/20 14:20:52;;;;;;;10.60;5.00;;;;;;;4.90;78.31;98410.66;4236224;83;21161;-88
2021/01/20 14:26:57;;;;;;;13.58;4.92;;;;;;;4.81;78.48;98416.25;4250857;83;21363;-88
2021/01/20 14:32:59;;;;;;;13.88;5.72;;;;;;;4.83;77.87;98409.91;4244869;82;21741;-88
2021/01/20 14:39:00;;;;;;;11.12;4.83;;;;;;;4.73;78.37;98415.06;4228388;83;21210;-89
2021/01/20 14:45:03;;;;;;;12.43;6.00;;;;;;;4.63;78.44;98422.38;4236105;83;21325;-88
2021/01/20 14:51:04;;;;;;;15.45;7.35;;;;;;;4.51;78.40;98424.59;4239655;83;21652;-89
2021/01/20 14:57:06;;;;;;;16.48;7.35;;;;;;;4.41;78.51;98431.09;4240182;83;21198;-89
2021/01/20 15:03:07;;;;;;;80.10;41.45;;;;;;;4.36;78.71;98430.79;4256430;83;21165;-88
2021/01/20 15:09:09;;;;;;;92.42;40.17;;;;;;;4.35;78.68;98427.84;4251158;83;21182;-89
2021/01/20 15:15:12;;;;;;;60.58;24.87;;;;;;;4.35;78.70;98430.55;4248738;83;21170;-89
2021/01/20 15:21:15;;;;;;;50.63;22.02;;;;;;;4.09;78.64;98439.72;4243644;83;22276;-89
2021/01/20 15:27:16;;;;;;;78.15;33.08;;;;;;;3.79;78.63;98441.19;4248585;83;21170;-90
2021/01/20 15:33:18;;;;;;;176.93;69.53;;;;;;;3.58;78.96;98452.77;4244602;83;21177;-89
2021/01/20 15:39:20;;;;;;;222.20;84.32;;;;;;;3.46;79.22;98447.36;4282962;82;21156;-87
2021/01/20 15:45:21;;;;;;;74.75;28.35;;;;;;;3.38;79.42;98456.42;4275335;82;21190;-86
2021/01/20 15:51:23;;;;;;;409.22;146.05;;;;;;;3.35;79.73;98454.40;4267998;82;21562;-87
2021/01/20 15:57:24;;;;;;;180.27;63.58;;;;;;;3.27;79.77;98458.56;4296965;81;21347;-90
2021/01/20 16:03:26;;;;;;;55.63;23.35;;;;;;;3.17;79.91;98461.16;4295172;81;21167;-91
2021/01/20 16:09:27;;;;;;;72.60;27.70;;;;;;;3.05;80.18;98455.18;4295534;81;21183;-90
2021/01/20 16:15:29;;;;;;;231.15;75.00;;;;;;;2.98;80.39;98450.92;4250811;83;21190;-89
2021/01/20 16:21:31;;;;;;;31.95;16.05;;;;;;;2.92;80.62;98450.92;4323641;81;21200;-91
2021/01/20 16:27:46;;;;;;;36.98;17.77;;;;;;;2.98;80.75;98447.41;4276588;82;21146;-90
2021/01/20 16:33:48;;;;;;;70.52;32.23;;;;;;;2.93;80.59;98452.48;4260714;82;21323;-87
2021/01/20 16:39:51;;;;;;;91.55;38.63;;;;;;;2.74;80.77;98459.59;4256664;82;21207;-88
2021/01/20 16:45:53;;;;;;;72.32;32.28;;;;;;;2.65;81.08;98452.92;4256733;82;21144;-89
2021/01/20 16:51:55;;;;;;;57.30;27.85;;;;;;;2.54;81.17;98445.02;4260929;82;21237;-90
2021/01/20 16:57:57;;;;;;;76.85;33.88;;;;;;;2.40;81.05;98444.54;4265345;82;21597;-91
2021/01/20 17:03:58;;;;;;;90.20;41.13;;;;;;;2.25;81.14;98445.74;4256587;82;21209;-90
2021/01/20 17:10:00;;;;;;;69.25;30.88;;;;;;;2.09;81.65;98441.53;4268356;82;21185;-89
2021/01/20 17:16:02;;;;;;;56.00;27.22;;;;;;;1.97;81.84;98429.91;4251645;82;21358;-89
2021/01/20 17:22:04;;;;;;;58.25;27.48;;;;;;;2.03;82.18;98445.56;4246332;82;21674;-92
2021/01/20 17:28:06;;;;;;;50.28;22.82;;;;;;;2.31;82.34;98445.20;4234619;83;21323;-91
2021/01/20 17:34:08;;;;;;;45.80;22.42;;;;;;;2.25;82.13;98445.74;4217764;82;21909;-90
2021/01/20 17:40:17;;;;;;;44.27;20.60;;;;;;;2.09;82.00;98440.73;4251759;82;22259;-91
2021/01/20 17:46:22;;;;;;;46.33;21.68;;;;;;;1.68;82.36;98434.83;4249346;82;21193;-91
2021/01/20 17:59:49;;;;;;;46.95;21.42;;;;;;;1.56;82.56;98429.39;4247710;82;21248;-91
2021/01/20 18:05:51;;;;;;;48.42;23.80;;;;;;;1.44;82.36;98437.42;4254409;82;21650;-91
2021/01/20 18:11:53;;;;;;;60.98;26.42;;;;;;;1.33;82.88;98422.16;4262600;82;21177;-91
2021/01/20 18:17:57;;;;;;;60.08;27.82;;;;;;;1.17;82.64;98423.08;4238152;82;21162;-91
2021/01/20 18:23:58;;;;;;;65.05;31.73;;;;;;;1.17;82.64;98423.08;4248067;82;21212;-91
2021/01/20 18:30:00;;;;;;;50.15;25.08;;;;;;;1.09;83.27;98431.47;4255748;82;21192;-89
2021/01/20 18:36:01;;;;;;;55.40;25.27;;;;;;;1.02;83.45;98424.98;4079335;82;10000306;-90
2021/01/20 18:42:04;;;;;;;58.52;29.85;;;;;;;0.98;83.65;98418.13;4174607;84;21638;-90
2021/01/20 18:48:31;;;;;;;71.57;35.23;;;;;;;0.93;83.23;98422.91;4203825;82;21178;-92
2021/01/20 18:54:41;;;;;;;105.83;46.63;;;;;;;0.64;82.93;98425.59;4162245;84;21238;-89
2021/01/20 19:00:42;;;;;;;109.15;47.00;;;;;;;0.38;83.72;98431.07;4178660;84;21228;-91
2021/01/20 19:06:53;;;;;;;142.10;65.45;;;;;;;0.44;84.12;98440.55;4230809;82;21208;-90
2021/01/20 19:13:30;;;;;;;;;;;;;;;;;;;;;
2021/01/20 19:20:16;;;;;;;116.45;54.85;;;;;;;0.49;84.22;98418.03;4518830;76;24125;-93
2021/01/20 19:26:36;;;;;;;117.57;54.95;;;;;;;0.33;84.27;98417.01;4438933;78;21131;-91
2021/01/20 19:33:18;;;;;;;123.28;59.38;;;;;;;0.33;84.35;98407.58;4453926;78;21336;-91
2021/01/20 19:39:31;;;;;;;104.70;53.85;;;;;;;0.24;84.55;98400.87;4430882;78;21183;-93
2021/01/20 19:45:50;;;;;;;114.72;54.70;;;;;;;0.25;84.98;98397.05;4408053;79;21183;-91
2021/01/20 19:51:53;;;;;;;97.88;48.55;;;;;;;0.15;84.60;98404.70;4438719;79;21662;-91
2021/01/20 19:58:00;;;;;;;123.17;57.27;;;;;;;-0.09;84.16;98401.98;4427923;79;21174;-92
2021/01/20 20:04:02;;;;;;;147.22;68.10;;;;;;;-0.26;85.29;98393.15;4438481;79;21154;-89
2021/01/20 20:10:09;;;;;;;138.37;68.10;;;;;;;-0.22;85.17;98400.83;4432057;79;21166;-92
2021/01/20 20:16:24;;;;;;;142.70;64.27;;;;;;;-0.22;85.25;98395.45;4422768;79;21623;-92
2021/01/20 20:22:31;;;;;;;217.30;85.87;;;;;;;-0.29;84.92;98391.90;4411303;79;21169;-93
2021/01/20 20:28:49;;;;;;;147.93;64.60;;;;;;;-0.38;85.33;98387.63;4411202;79;21143;-92
2021/01/20 20:35:09;;;;;;;170.80;74.97;;;;;;;-0.49;85.18;98385.03;4397433;79;21209;-92
2021/01/20 20:41:23;;;;;;;178.62;78.47;;;;;;;-0.49;85.58;98385.83;4408337;79;21127;-92
2021/01/20 20:47:33;;;;;;;198.73;77.87;;;;;;;-0.67;85.68;98384.23;4409138;79;21115;-93
2021/01/20 20:53:40;;;;;;;211.33;90.23;;;;;;;-0.64;85.65;98384.18;4426897;79;21564;-92
2021/01/20 21:11:49;;;;;;;220.20;95.77;;;;;;;-0.65;86.09;98382.58;4578356;76;23521;-92
2021/01/20 21:18:13;;;;;;;193.30;73.55;;;;;;;-0.74;86.05;98371.05;4418310;79;21161;-91
2021/01/20 21:24:23;;;;;;;199.13;89.73;;;;;;;-0.83;85.67;98364.31;4411347;78;21123;-92
2021/01/20 21:30:25;;;;;;;221.10;94.37;;;;;;;-0.92;85.88;98369.44;4424445;79;21618;-91
2021/01/20 21:36:26;;;;;;;178.90;78.97;;;;;;;-0.97;86.13;98360.22;4328456;77;10000496;-91
2021/01/20 21:42:30;;;;;;;198.83;84.47;;;;;;;-0.90;86.72;98358.63;4452258;78;21157;-91
2021/01/20 21:48:31;;;;;;;205.03;88.33;;;;;;;-0.91;85.93;98358.95;4450852;78;21109;-91
2021/01/20 21:54:33;;;;;;;172.40;71.70;;;;;;;-0.94;86.50;98356.90;4448573;78;21609;-91
2021/01/20 22:00:34;;;;;;;220.97;95.00;;;;;;;-0.94;86.50;98356.32;4450684;78;21162;-91
2021/01/20 22:06:36;;;;;;;172.13;73.97;;;;;;;-1.06;86.08;98351.33;4450924;78;21154;-91
2021/01/20 22:12:38;;;;;;;171.03;74.17;;;;;;;-1.25;86.32;98360.25;4443912;78;21126;-92
2021/01/20 22:18:40;;;;;;;198.63;85.47;;;;;;;-1.22;86.81;98349.66;4446923;78;21284;-92
2021/01/20 22:24:41;;;;;;;207.70;87.77;;;;;;;-1.31;86.23;98348.86;4442012;78;21129;-90
2021/01/20 22:30:44;;;;;;;190.43;82.90;;;;;;;-1.43;86.20;98339.28;4417865;79;21610;-91
2021/01/20 22:36:46;;;;;;;187.00;82.87;;;;;;;-1.48;86.74;98338.63;4428579;79;21133;-91
2021/01/20 22:42:47;;;;;;;195.03;85.10;;;;;;;-1.50;87.06;98322.06;4332615;80;21150;-91
2021/01/20 22:48:49;;;;;;;209.23;87.10;;;;;;;-1.66;86.33;98317.69;4339267;80;21195;-91
2021/01/20 22:54:50;;;;;;;220.37;95.97;;;;;;;-1.87;86.19;98325.50;4340037;80;21220;-91
2021/01/20 23:00:52;;;;;;;224.87;97.30;;;;;;;-1.93;86.68;98313.34;4280101;81;21172;-91
2021/01/20 23:06:56;;;;;;;212.67;90.53;;;;;;;-1.89;86.89;98300.07;4271968;81;22438;-90
2021/01/20 23:12:58;;;;;;;263.23;108.80;;;;;;;-1.85;87.41;98305.07;4284250;81;21162;-91
2021/01/20 23:19:00;;;;;;;235.37;98.87;;;;;;;-1.94;86.75;98292.16;4287298;81;21162;-90
2021/01/20 23:25:03;;;;;;;232.37;94.30;;;;;;;-1.93;86.90;98289.20;4283814;81;21904;-91
2021/01/20 23:31:05;;;;;;;237.90;102.80;;;;;;;-2.01;86.77;98296.66;4368172;79;21435;-90
2021/01/20 23:37:06;;;;;;;230.40;97.33;;;;;;;-2.02;86.84;98289.69;4432642;79;21139;-91
2021/01/20 23:43:08;;;;;;;278.87;111.60;;;;;;;-2.11;86.62;98288.88;4439590;78;21124;-90
2021/01/20 23:49:09;;;;;;;284.20;113.20;;;;;;;-2.25;86.98;98277.45;4441594;78;21157;-90
2021/01/20 23:55:12;;;;;;;278.33;110.40;;;;;;;-2.21;87.27;98274.95;4427934;79;21141;-92
